createdAt,value
2018-01-06T00:01:38.605Z,13.10
2018-01-06T00:04:06.018Z,14.03
2018-01-06T00:06:33.429Z,13.47
2018-01-06T00:09:00.838Z,13.33
2018-01-06T00:11:28.247Z,12.90
2018-01-06T00:13:55.655Z,12.70
2018-01-06T00:16:23.069Z,12.50
2018-01-06T00:18:50.476Z,12.57
2018-01-06T00:21:17.878Z,13.20
2018-01-06T00:23:45.289Z,12.10
2018-01-06T00:26:12.696Z,12.23
2018-01-06T00:28:40.105Z,13.20
2018-01-06T00:31:07.513Z,12.57
2018-01-06T00:33:34.933Z,12.40
2018-01-06T00:36:02.342Z,12.30
2018-01-06T00:38:29.745Z,12.20
2018-01-06T00:40:57.164Z,12.20
2018-01-06T00:43:24.566Z,12.30
2018-01-06T00:45:51.984Z,12.97
2018-01-06T00:48:19.389Z,12.70
2018-01-06T00:50:46.813Z,12.10
2018-01-06T00:53:14.217Z,12.03
2018-01-06T00:55:41.625Z,12.10
2018-01-06T00:58:09.039Z,12.83
2018-01-06T01:00:36.446Z,12.20
2018-01-06T01:03:03.865Z,11.70
2018-01-06T01:05:31.272Z,12.10
2018-01-06T01:07:58.701Z,12.87
2018-01-06T01:10:26.109Z,12.40
2018-01-06T01:12:53.525Z,12.47
2018-01-06T01:15:20.950Z,12.30
2018-01-06T01:17:48.358Z,11.93
2018-01-06T01:20:15.781Z,12.57
2018-01-06T01:22:43.190Z,12.63
2018-01-06T01:25:10.609Z,12.60
2018-01-06T01:27:38.013Z,12.17
2018-01-06T01:30:05.421Z,12.40
2018-01-06T01:32:32.829Z,13.03
2018-01-06T01:35:00.235Z,13.00
2018-01-06T01:37:27.642Z,12.93
2018-01-06T01:39:55.049Z,13.63
2018-01-06T01:42:22.473Z,13.53
2018-01-06T01:44:49.886Z,13.90
2018-01-06T01:47:17.286Z,11.83
2018-01-06T01:49:44.706Z,11.70
2018-01-06T01:52:12.109Z,12.70
2018-01-06T01:54:39.522Z,11.80
2018-01-06T01:57:06.968Z,12.63
2018-01-06T01:59:34.400Z,11.70
2018-01-06T02:02:01.809Z,11.87
2018-01-06T02:04:29.238Z,11.40
2018-01-06T02:06:56.705Z,11.93
2018-01-06T02:09:24.097Z,11.17
2018-01-06T02:11:51.518Z,12.23
2018-01-06T02:14:18.921Z,11.70
2018-01-06T02:16:46.358Z,12.07
2018-01-06T02:19:13.761Z,11.43
2018-01-06T02:21:41.169Z,12.17
2018-01-06T02:24:08.580Z,12.23
2018-01-06T02:26:35.997Z,12.73
2018-01-06T02:29:03.410Z,12.03
2018-01-06T02:31:30.814Z,11.73
2018-01-06T02:33:58.238Z,11.77
2018-01-06T02:36:25.649Z,11.40
2018-01-06T02:38:53.049Z,11.23
2018-01-06T02:41:20.473Z,12.17
2018-01-06T02:43:47.884Z,12.67
2018-01-06T02:46:15.300Z,12.40
2018-01-06T02:48:42.710Z,12.30
2018-01-06T02:51:10.162Z,11.90
2018-01-06T02:53:37.584Z,12.20
2018-01-06T02:56:05.006Z,11.17
2018-01-06T02:58:32.421Z,11.70
2018-01-06T03:00:59.821Z,13.00
2018-01-06T03:03:27.222Z,14.20
2018-01-06T03:05:54.665Z,13.73
2018-01-06T03:08:22.066Z,12.07
2018-01-06T03:10:49.482Z,12.47
2018-01-06T03:13:16.937Z,12.87
2018-01-06T03:15:44.300Z,11.80
2018-01-06T03:18:11.701Z,12.07
2018-01-06T03:20:39.105Z,12.17
2018-01-06T03:23:06.517Z,11.80
2018-01-06T03:25:33.940Z,11.93
2018-01-06T03:28:01.354Z,11.80
2018-01-06T03:30:28.754Z,12.40
2018-01-06T03:32:56.175Z,12.07
2018-01-06T03:35:23.582Z,12.10
2018-01-06T03:37:50.985Z,12.10
2018-01-06T03:40:18.410Z,12.40
2018-01-06T03:42:45.812Z,12.10
2018-01-06T03:45:13.245Z,12.13
2018-01-06T03:47:40.657Z,12.70
2018-01-06T03:50:08.897Z,12.60
2018-01-06T03:52:36.309Z,12.37
2018-01-06T03:55:03.714Z,12.20
2018-01-06T03:57:31.147Z,11.53
2018-01-06T03:59:58.562Z,12.77
2018-01-06T04:02:26.001Z,11.97
2018-01-06T04:04:53.415Z,12.47
2018-01-06T04:07:20.822Z,12.37
2018-01-06T04:09:48.261Z,12.10
2018-01-06T04:12:15.726Z,12.20
2018-01-06T04:14:43.081Z,12.10
2018-01-06T04:17:10.505Z,11.60
2018-01-06T04:19:37.909Z,11.80
2018-01-06T04:22:05.340Z,12.10
2018-01-06T04:24:32.760Z,12.57
2018-01-06T04:27:00.158Z,12.80
2018-01-06T04:29:27.586Z,12.00
2018-01-06T04:31:55.011Z,12.10
2018-01-06T04:34:22.428Z,12.90
2018-01-06T04:36:49.865Z,12.10
2018-01-06T04:39:17.270Z,12.50
2018-01-06T04:41:44.710Z,13.80
2018-01-06T04:44:12.103Z,12.57
2018-01-06T04:46:39.526Z,13.63
2018-01-06T04:49:06.942Z,13.18
2018-01-06T04:51:34.351Z,12.10
2018-01-06T04:54:01.768Z,12.57
2018-01-06T04:56:29.173Z,12.50
2018-01-06T04:58:56.598Z,13.17
2018-01-06T05:01:23.996Z,13.67
2018-01-06T05:03:51.402Z,12.40
2018-01-06T05:06:18.808Z,13.90
2018-01-06T05:08:46.226Z,11.80
2018-01-06T05:11:13.637Z,11.70
2018-01-06T05:13:41.045Z,12.63
2018-01-06T05:16:08.457Z,12.23
2018-01-06T05:18:35.905Z,12.20
2018-01-06T05:21:03.317Z,12.20
2018-01-06T05:23:30.733Z,12.10
2018-01-06T05:25:58.150Z,12.23
2018-01-06T05:28:25.556Z,12.30
2018-01-06T05:30:52.978Z,13.00
2018-01-06T05:33:20.381Z,12.50
2018-01-06T05:35:47.804Z,12.40
2018-01-06T05:38:15.233Z,13.00
2018-01-06T05:40:42.649Z,11.80
2018-01-06T05:43:10.071Z,12.30
2018-01-06T05:45:37.488Z,12.35
2018-01-06T05:48:04.917Z,12.50
2018-01-06T05:50:32.325Z,13.77
2018-01-06T05:52:59.728Z,13.00
2018-01-06T05:55:27.138Z,12.10
2018-01-06T05:57:54.538Z,13.30
2018-01-06T06:00:21.964Z,13.27
2018-01-06T06:02:49.377Z,12.93
2018-01-06T06:05:16.793Z,12.47
2018-01-06T06:07:44.208Z,12.93
2018-01-06T06:10:11.613Z,12.80
2018-01-06T06:12:39.125Z,12.10
2018-01-06T06:15:06.521Z,12.33
2018-01-06T06:17:33.924Z,12.60
2018-01-06T06:20:01.342Z,12.43
2018-01-06T06:22:28.749Z,12.47
2018-01-06T06:24:56.172Z,11.35
2018-01-06T06:27:23.585Z,11.37
2018-01-06T06:29:51.001Z,11.60
2018-01-06T06:32:18.414Z,12.03
2018-01-06T06:34:45.822Z,11.93
2018-01-06T06:37:13.269Z,11.85
2018-01-06T06:39:40.673Z,12.67
2018-01-06T06:42:08.081Z,11.40
2018-01-06T06:44:35.501Z,11.30
2018-01-06T06:47:02.907Z,12.00
2018-01-06T06:49:30.340Z,11.37
2018-01-06T06:51:57.745Z,12.40
2018-01-06T06:54:25.165Z,12.57
2018-01-06T06:56:52.581Z,12.70
2018-01-06T06:59:19.990Z,12.43
2018-01-06T07:01:47.417Z,11.70
2018-01-06T07:04:14.834Z,12.17
2018-01-06T07:06:42.249Z,12.80
2018-01-06T07:09:09.673Z,12.02
2018-01-06T07:11:37.102Z,12.60
2018-01-06T07:14:04.529Z,13.07
2018-01-06T07:16:31.924Z,12.57
2018-01-06T07:18:59.357Z,12.20
2018-01-06T07:21:26.793Z,12.90
2018-01-06T07:23:54.217Z,12.27
2018-01-06T07:26:21.633Z,12.20
2018-01-06T07:28:49.037Z,12.23
2018-01-06T07:31:16.630Z,12.20
2018-01-06T07:33:44.043Z,13.30
2018-01-06T07:36:11.445Z,14.07
2018-01-06T07:38:38.882Z,14.82
2018-01-06T07:41:06.326Z,14.57
2018-01-06T07:43:33.730Z,13.90
2018-01-06T07:46:01.137Z,13.20
2018-01-06T07:48:28.550Z,13.80
2018-01-06T07:50:55.977Z,13.70
2018-01-06T07:53:23.385Z,13.70
2018-01-06T07:55:50.798Z,13.07
2018-01-06T07:58:18.252Z,13.70
2018-01-06T08:00:45.681Z,12.80
2018-01-06T08:03:13.121Z,12.77
2018-01-06T08:05:40.521Z,12.40
2018-01-06T08:08:07.929Z,12.70
2018-01-06T08:10:35.345Z,12.87
2018-01-06T08:13:02.750Z,12.27
2018-01-06T08:15:30.167Z,13.77
2018-01-06T08:17:57.595Z,13.57
2018-01-06T08:20:24.991Z,13.27
2018-01-06T08:22:52.402Z,13.37
2018-01-06T08:25:19.811Z,13.10
2018-01-06T08:30:37.437Z,13.30
2018-01-06T08:33:04.853Z,12.67
2018-01-06T08:35:32.254Z,12.40
2018-01-06T08:37:59.673Z,13.20
2018-01-06T08:40:27.080Z,14.40
2018-01-06T08:42:54.881Z,13.60
2018-01-06T08:45:22.294Z,14.10
2018-01-06T08:47:49.697Z,13.40
2018-01-06T08:50:17.114Z,14.10
2018-01-06T08:52:45.001Z,13.60
2018-01-06T08:55:12.411Z,13.23
2018-01-06T08:57:39.832Z,13.53
2018-01-06T09:00:07.233Z,13.30
2018-01-06T09:02:35.033Z,13.90
2018-01-06T09:05:02.445Z,13.80
2018-01-06T09:07:29.857Z,13.90
2018-01-06T09:09:57.257Z,14.00
2018-01-06T09:12:24.693Z,14.30
2018-01-06T09:14:52.084Z,13.70
2018-01-06T09:17:19.498Z,13.20
2018-01-06T09:19:46.917Z,13.00
2018-01-06T09:22:14.328Z,12.83
2018-01-06T09:24:41.740Z,13.40
2018-01-06T09:27:09.174Z,13.03
2018-01-06T09:29:36.578Z,13.50
2018-01-06T09:32:04.004Z,13.30
2018-01-06T09:34:31.434Z,13.50
2018-01-06T09:36:58.841Z,12.60
2018-01-06T09:39:26.249Z,13.03
2018-01-06T09:41:55.602Z,13.10
2018-01-06T09:44:23.005Z,13.57
2018-01-06T09:46:50.431Z,13.37
2018-01-06T09:49:17.845Z,13.07
2018-01-06T09:51:45.253Z,13.93
2018-01-06T09:54:12.677Z,13.57
2018-01-06T09:56:40.134Z,13.73
2018-01-06T09:59:07.538Z,12.90
2018-01-06T10:01:34.956Z,12.83
2018-01-06T10:04:02.378Z,11.67
2018-01-06T10:06:29.810Z,12.43
2018-01-06T10:08:57.233Z,12.07
2018-01-06T10:11:24.657Z,12.73
2018-01-06T10:13:52.072Z,11.60
2018-01-06T10:16:19.481Z,11.23
2018-01-06T10:18:46.905Z,11.57
2018-01-06T10:21:14.717Z,11.50
2018-01-06T10:23:42.144Z,11.93
2018-01-06T10:26:09.590Z,11.23
2018-01-06T10:28:37.021Z,11.93
2018-01-06T10:31:04.438Z,11.50
2018-01-06T10:33:31.866Z,11.83
2018-01-06T10:36:00.178Z,12.20
2018-01-06T10:38:27.582Z,12.17
2018-01-06T10:40:55.037Z,12.50
2018-01-06T10:43:22.437Z,12.90
2018-01-06T10:45:50.171Z,13.40
2018-01-06T10:48:17.634Z,11.63
2018-01-06T10:50:45.034Z,12.93
2018-01-06T10:53:12.438Z,12.53
2018-01-06T10:55:39.921Z,12.50
2018-01-06T10:58:07.334Z,11.40
2018-01-06T11:00:40.265Z,11.03
2018-01-06T11:03:08.938Z,11.93
2018-01-06T11:05:36.342Z,12.30
2018-01-06T11:08:04.820Z,13.03
2018-01-06T11:10:32.229Z,12.60
2018-01-06T11:12:59.637Z,11.70
2018-01-06T11:15:27.934Z,12.70
2018-01-06T11:17:55.350Z,12.63
2018-01-06T11:20:22.754Z,12.30
2018-01-06T11:22:50.197Z,12.23
2018-01-06T11:25:17.599Z,12.40
2018-01-06T11:27:45.781Z,12.80
2018-01-06T11:30:14.133Z,13.07
2018-01-06T11:32:41.549Z,13.20
2018-01-06T11:35:08.958Z,13.30
2018-01-06T11:37:36.387Z,13.63
2018-01-06T11:40:04.990Z,13.77
2018-01-06T11:42:32.384Z,13.30
2018-01-06T11:44:59.811Z,12.80
2018-01-06T11:47:27.221Z,13.20
2018-01-06T11:49:54.643Z,12.90
2018-01-06T11:52:22.081Z,12.37
2018-01-06T11:54:49.548Z,13.60
2018-01-06T11:57:17.817Z,13.30
2018-01-06T11:59:46.217Z,13.30
2018-01-06T12:02:13.686Z,13.10
2018-01-06T12:04:41.109Z,14.43
2018-01-06T12:07:08.542Z,13.10
2018-01-06T12:09:35.991Z,13.77
2018-01-06T12:12:03.413Z,13.80
2018-01-06T12:14:30.844Z,12.60
2018-01-06T12:16:58.268Z,13.47
2018-01-06T12:19:25.675Z,13.13
2018-01-06T12:21:53.103Z,13.03
2018-01-06T12:24:20.514Z,13.10
2018-01-06T12:26:47.921Z,13.20
2018-01-06T12:29:15.342Z,14.80
2018-01-06T12:31:42.765Z,14.33
2018-01-06T12:34:10.163Z,14.30
2018-01-06T12:36:37.581Z,14.77
2018-01-06T12:39:05.978Z,14.13
2018-01-06T12:41:33.382Z,15.93
2018-01-06T12:44:00.805Z,14.43
2018-01-06T12:46:28.226Z,14.80
2018-01-06T12:48:56.389Z,15.63
2018-01-06T12:51:23.825Z,15.27
2018-01-06T12:53:51.237Z,15.67
2018-01-06T12:56:18.674Z,14.07
2018-01-06T12:58:46.161Z,14.50
2018-01-06T13:01:13.573Z,14.40
2018-01-06T13:03:40.989Z,13.87
2018-01-06T13:06:08.444Z,15.40
2018-01-06T13:08:35.911Z,14.70
2018-01-06T13:11:03.329Z,16.67
2018-01-06T13:13:30.749Z,15.23
2018-01-06T13:15:58.175Z,15.03
2018-01-06T13:18:25.590Z,15.67
2018-01-06T13:20:53.013Z,17.73
2018-01-06T13:23:20.426Z,16.70
2018-01-06T13:25:47.834Z,19.23
2018-01-06T13:28:15.303Z,18.90
2018-01-06T13:30:42.717Z,16.70
2018-01-06T13:33:10.174Z,17.57
2018-01-06T13:35:37.598Z,17.40
2018-01-06T13:38:04.997Z,16.63
2018-01-06T13:40:32.405Z,15.97
2018-01-06T13:42:59.842Z,16.90
2018-01-06T13:45:27.241Z,15.97
2018-01-06T13:47:54.653Z,16.40
2018-01-06T13:50:22.079Z,15.10
2018-01-06T13:52:49.493Z,15.90
2018-01-06T13:55:16.893Z,16.87
2018-01-06T13:57:44.325Z,14.63
2018-01-06T14:00:11.734Z,15.53
2018-01-06T14:02:39.133Z,15.20
2018-01-06T14:05:06.550Z,16.17
2018-01-06T14:07:33.958Z,16.00
2018-01-06T14:10:01.366Z,15.70
2018-01-06T14:12:28.781Z,15.10
2018-01-06T14:14:56.201Z,16.30
2018-01-06T14:17:23.601Z,15.43
2018-01-06T14:19:51.021Z,15.27
2018-01-06T14:22:18.422Z,14.40
2018-01-06T14:24:45.825Z,15.17
2018-01-06T14:27:13.262Z,16.20
2018-01-06T14:29:40.669Z,16.40
2018-01-06T14:32:08.074Z,15.03
2018-01-06T14:34:35.505Z,16.57
2018-01-06T14:37:02.913Z,17.30
2018-01-06T14:39:30.325Z,16.90
2018-01-06T14:41:57.748Z,15.50
2018-01-06T14:44:25.171Z,16.77
2018-01-06T14:46:52.574Z,18.67
2018-01-06T14:49:19.989Z,15.60
2018-01-06T14:51:47.390Z,16.70
2018-01-06T14:54:14.805Z,16.10
2018-01-06T14:56:42.218Z,16.20
2018-01-06T14:59:09.621Z,15.43
2018-01-06T15:01:37.031Z,16.13
2018-01-06T15:04:04.446Z,16.23
2018-01-06T15:06:31.849Z,15.10
2018-01-06T15:09:00.217Z,16.70
2018-01-06T15:11:27.646Z,15.07
2018-01-06T15:13:55.057Z,16.10
2018-01-06T15:16:22.453Z,15.93
2018-01-06T15:18:49.897Z,15.90
2018-01-06T15:21:17.320Z,16.50
2018-01-06T15:23:44.737Z,16.13
2018-01-06T15:26:12.153Z,16.30
2018-01-06T15:28:39.561Z,15.20
2018-01-06T15:31:07.033Z,14.80
2018-01-06T15:33:34.445Z,14.73
2018-01-06T15:36:01.935Z,15.67
2018-01-06T15:38:29.346Z,14.80
2018-01-06T15:40:57.039Z,14.70
2018-01-06T15:43:24.445Z,14.70
2018-01-06T15:45:51.849Z,14.83
2018-01-06T15:48:19.345Z,14.60
2018-01-06T15:50:46.765Z,16.70
2018-01-06T15:53:14.178Z,14.80
2018-01-06T15:55:41.615Z,15.80
2018-01-06T15:58:09.074Z,14.43
2018-01-06T16:00:36.449Z,16.80
2018-01-06T16:03:03.910Z,16.77
2018-01-06T16:05:31.313Z,16.57
2018-01-06T16:07:58.742Z,15.67
2018-01-06T16:10:26.169Z,17.67
2018-01-06T16:12:53.580Z,18.50
2018-01-06T16:15:21.064Z,19.23
2018-01-06T16:17:48.516Z,17.80
2018-01-06T16:20:15.929Z,16.53
2018-01-06T16:22:43.340Z,17.80
2018-01-06T16:25:10.762Z,17.83
2018-01-06T16:27:38.165Z,19.57
2018-01-06T16:30:05.620Z,18.90
2018-01-06T16:32:33.041Z,19.93
2018-01-06T16:35:00.445Z,19.20
2018-01-06T16:37:27.849Z,19.67
2018-01-06T16:39:55.319Z,18.70
2018-01-06T16:42:22.729Z,19.97
2018-01-06T16:44:50.154Z,19.10
2018-01-06T16:47:17.601Z,19.10
2018-01-06T16:49:45.018Z,19.10
2018-01-06T16:52:12.425Z,20.00
2018-01-06T16:54:39.850Z,20.63
2018-01-06T16:57:07.257Z,22.30
2018-01-06T16:59:34.673Z,21.97
2018-01-06T17:02:02.114Z,20.47
2018-01-06T17:04:29.580Z,21.20
2018-01-06T17:06:56.997Z,23.10
2018-01-06T17:09:24.471Z,21.37
2018-01-06T17:11:51.907Z,23.20
2018-01-06T17:14:19.317Z,22.67
2018-01-06T17:16:46.754Z,22.57
2018-01-06T17:19:14.165Z,22.43
2018-01-06T17:21:41.682Z,21.50
2018-01-06T17:24:09.102Z,21.83
2018-01-06T17:26:37.797Z,21.13
2018-01-06T17:29:05.262Z,20.70
2018-01-06T17:31:32.741Z,20.50
2018-01-06T17:34:00.187Z,19.63
2018-01-06T17:36:27.601Z,19.30
2018-01-06T17:38:58.828Z,19.57
2018-01-06T17:41:26.382Z,19.27
2018-01-06T17:43:54.071Z,20.00
2018-01-06T17:46:21.532Z,18.93
2018-01-06T17:48:49.025Z,17.67
2018-01-06T17:51:16.425Z,18.10
2018-01-06T17:53:44.202Z,17.90
2018-01-06T17:56:11.606Z,17.93
2018-01-06T17:58:39.011Z,18.30
2018-01-06T18:01:06.448Z,18.33
2018-01-06T18:03:33.852Z,17.90
2018-01-06T18:06:01.312Z,17.47
2018-01-06T18:08:28.753Z,17.87
2018-01-06T18:10:56.179Z,16.80
2018-01-06T18:13:23.593Z,16.50
2018-01-06T18:15:51.941Z,17.53
2018-01-06T18:18:19.345Z,17.77
2018-01-06T18:20:46.757Z,17.40
2018-01-06T18:23:14.183Z,16.77
2018-01-06T18:25:41.745Z,17.37
2018-01-06T18:28:09.186Z,16.87
2018-01-06T18:30:36.598Z,17.47
2018-01-06T18:33:04.026Z,17.60
2018-01-06T18:35:31.494Z,17.50
2018-01-06T18:37:58.938Z,17.90
2018-01-06T18:40:26.362Z,17.97
2018-01-06T18:42:53.783Z,17.63
2018-01-06T18:45:21.209Z,17.83
2018-01-06T18:47:48.621Z,18.57
2018-01-06T18:50:16.029Z,19.83
2018-01-06T18:52:43.445Z,19.10
2018-01-06T18:55:10.865Z,19.30
2018-01-06T18:57:38.275Z,19.63
2018-01-06T19:00:05.750Z,20.50
2018-01-06T19:02:33.198Z,19.97
2018-01-06T19:05:02.054Z,22.00
2018-01-06T19:07:29.548Z,19.50
2018-01-06T19:09:56.991Z,20.97
2018-01-06T19:12:28.350Z,22.20
2018-01-06T19:14:55.914Z,20.00
2018-01-06T19:17:23.412Z,22.13
2018-01-06T19:19:50.855Z,21.73
2018-01-06T19:22:18.307Z,22.37
2018-01-06T19:24:45.842Z,22.43
2018-01-06T19:27:13.269Z,23.30
2018-01-06T19:29:40.722Z,22.77
2018-01-06T19:32:08.166Z,23.30
2018-01-06T19:34:35.634Z,22.90
2018-01-06T19:37:03.070Z,22.50
2018-01-06T19:39:30.503Z,23.43
2018-01-06T19:41:57.930Z,24.57
2018-01-06T19:44:25.405Z,23.90
2018-01-06T19:46:52.818Z,22.90
2018-01-06T19:49:20.238Z,22.30
2018-01-06T19:51:47.726Z,23.07
2018-01-06T19:54:15.150Z,23.33
2018-01-06T19:56:42.614Z,21.60
2018-01-06T19:59:10.177Z,21.17
2018-01-06T20:01:37.614Z,22.70
2018-01-06T20:04:11.090Z,20.40
2018-01-06T20:06:38.525Z,22.50
2018-01-06T20:09:06.003Z,23.53
2018-01-06T20:11:33.465Z,22.83
2018-01-06T20:14:00.890Z,22.27
2018-01-06T20:16:28.347Z,21.33
2018-01-06T20:18:55.821Z,22.80
2018-01-06T20:21:23.233Z,20.97
2018-01-06T20:23:50.660Z,21.97
2018-01-06T20:26:18.951Z,21.53
2018-01-06T20:28:47.321Z,21.37
2018-01-06T20:31:14.827Z,20.83
2018-01-06T20:33:42.364Z,21.27
2018-01-06T20:36:09.846Z,20.60
2018-01-06T20:38:37.337Z,20.73
2018-01-06T20:41:04.903Z,20.70
2018-01-06T20:43:32.338Z,20.83
2018-01-06T20:45:59.772Z,20.37
2018-01-06T20:48:27.222Z,20.33
2018-01-06T20:50:54.650Z,20.80
2018-01-06T20:53:22.058Z,20.40
2018-01-06T20:55:49.497Z,21.23
2018-01-06T20:58:16.922Z,21.73
2018-01-06T21:00:44.504Z,20.40
2018-01-06T21:03:13.563Z,20.00
2018-01-06T21:05:41.382Z,20.83
2018-01-06T21:08:08.773Z,20.97
2018-01-06T21:10:36.202Z,21.00
2018-01-06T21:13:03.613Z,20.80
2018-01-06T21:15:31.025Z,21.03
2018-01-06T21:17:58.453Z,20.67
2018-01-06T21:20:25.861Z,21.17
2018-01-06T21:22:53.275Z,22.53
2018-01-06T21:25:20.733Z,23.50
2018-01-06T21:27:48.142Z,23.13
2018-01-06T21:30:15.557Z,23.20
2018-01-06T21:32:42.989Z,24.63
2018-01-06T21:35:10.397Z,23.50
2018-01-06T21:37:37.810Z,23.40
2018-01-06T21:40:05.273Z,25.23
2018-01-06T21:42:32.674Z,27.40
2018-01-06T21:45:00.088Z,27.67
2018-01-06T21:47:27.518Z,27.80
2018-01-06T21:49:54.929Z,28.07
2018-01-06T21:52:22.336Z,30.23
2018-01-06T21:54:49.763Z,30.03
2018-01-06T21:57:17.170Z,29.87
2018-01-06T21:59:44.586Z,29.93
2018-01-06T22:02:12.006Z,32.43
2018-01-06T22:04:39.439Z,33.20
2018-01-06T22:07:06.845Z,33.30
2018-01-06T22:09:34.273Z,35.10
2018-01-06T22:12:01.690Z,34.50
2018-01-06T22:14:29.101Z,36.70
2018-01-06T22:16:56.533Z,36.70
2018-01-06T22:19:23.953Z,37.00
2018-01-06T22:21:51.357Z,38.57
2018-01-06T22:24:18.782Z,39.67
2018-01-06T22:26:46.199Z,38.60
2018-01-06T22:29:13.606Z,38.57
2018-01-06T22:31:41.045Z,39.13
2018-01-06T22:34:08.457Z,38.20
2018-01-06T22:36:35.878Z,39.90
2018-01-06T22:39:03.409Z,39.17
2018-01-06T22:41:30.817Z,38.53
2018-01-06T22:43:58.224Z,39.67
2018-01-06T22:46:25.652Z,39.27
2018-01-06T22:48:53.065Z,41.87
2018-01-06T22:51:20.489Z,40.13
2018-01-06T22:53:47.913Z,42.67
2018-01-06T22:56:15.325Z,38.93
2018-01-06T22:58:42.738Z,42.27
2018-01-06T23:01:10.157Z,39.60
2018-01-06T23:03:37.566Z,39.03
2018-01-06T23:06:04.997Z,40.47
2018-01-06T23:08:32.421Z,40.90
2018-01-06T23:10:59.844Z,40.30
2018-01-06T23:13:27.245Z,43.43
2018-01-06T23:15:54.673Z,41.80
2018-01-06T23:18:22.118Z,40.63
2018-01-06T23:20:49.530Z,41.43
2018-01-06T23:23:16.950Z,42.90
2018-01-06T23:25:44.366Z,42.03
2018-01-06T23:28:11.772Z,42.33
2018-01-06T23:30:39.209Z,43.40
2018-01-06T23:33:06.624Z,41.97
2018-01-06T23:35:34.038Z,41.53
2018-01-06T23:38:01.476Z,41.83
2018-01-06T23:40:28.890Z,43.17
2018-01-06T23:42:56.301Z,42.47
2018-01-06T23:45:23.753Z,43.07
2018-01-06T23:47:51.165Z,43.97
2018-01-06T23:50:18.577Z,43.83
2018-01-06T23:52:46.013Z,42.97
2018-01-06T23:55:13.420Z,43.27
2018-01-06T23:57:40.841Z,44.20
